sensor_id;sensor_type;location;lat;lon;timestamp;temperature;humidity
5055;DHT22;13829;48.990;8.346;2023-09-19T00:00:06;17.80;99.90
5055;DHT22;13829;48.990;8.346;2023-09-19T00:02:35;17.80;99.90
5055;DHT22;13829;48.990;8.346;2023-09-19T00:05:05;17.80;99.90
5055;DHT22;13829;48.990;8.346;2023-09-19T00:07:34;17.80;99.90
5055;DHT22;13829;48.990;8.346;2023-09-19T00:10:03;17.70;99.90
5055;DHT22;13829;48.990;8.346;2023-09-19T00:12:30;17.70;99.90
5055;DHT22;13829;48.990;8.346;2023-09-19T00:14:58;17.70;99.90
5055;DHT22;13829;48.990;8.346;2023-09-19T00:17:27;17.70;99.90
5055;DHT22;13829;48.990;8.346;2023-09-19T00:19:57;17.70;99.90
5055;DHT22;13829;48.990;8.346;2023-09-19T00:22:24;17.60;99.90
5055;DHT22;13829;48.990;8.346;2023-09-19T00:24:52;17.70;99.90
5055;DHT22;13829;48.990;8.346;2023-09-19T00:27:20;17.60;99.90
5055;DHT22;13829;48.990;8.346;2023-09-19T00:29:47;17.60;99.90
5055;DHT22;13829;48.990;8.346;2023-09-19T00:32:14;17.70;99.90
5055;DHT22;13829;48.990;8.346;2023-09-19T00:34:42;17.70;99.90
5055;DHT22;13829;48.990;8.346;2023-09-19T00:37:09;17.60;99.90
5055;DHT22;13829;48.990;8.346;2023-09-19T00:39:38;17.70;99.90
5055;DHT22;13829;48.990;8.346;2023-09-19T00:42:06;17.70;99.90
5055;DHT22;13829;48.990;8.346;2023-09-19T00:44:33;17.70;99.90
5055;DHT22;13829;48.990;8.346;2023-09-19T00:47:03;17.80;99.90
5055;DHT22;13829;48.990;8.346;2023-09-19T00:49:30;17.80;99.90
5055;DHT22;13829;48.990;8.346;2023-09-19T00:52:00;17.70;99.90
5055;DHT22;13829;48.990;8.346;2023-09-19T00:54:30;17.70;99.90
5055;DHT22;13829;48.990;8.346;2023-09-19T00:56:59;17.70;99.90
5055;DHT22;13829;48.990;8.346;2023-09-19T00:59:26;17.90;99.90
5055;DHT22;13829;48.990;8.346;2023-09-19T01:01:56;17.70;99.90
5055;DHT22;13829;48.990;8.346;2023-09-19T01:04:25;17.70;99.90
5055;DHT22;13829;48.990;8.346;2023-09-19T01:06:53;17.80;99.90
5055;DHT22;13829;48.990;8.346;2023-09-19T01:09:22;17.80;99.90
5055;DHT22;13829;48.990;8.346;2023-09-19T01:11:53;17.90;99.90
5055;DHT22;13829;48.990;8.346;2023-09-19T01:14:34;17.90;99.90
5055;DHT22;13829;48.990;8.346;2023-09-19T01:17:14;17.90;99.90
5055;DHT22;13829;48.990;8.346;2023-09-19T01:20:19;18.00;99.90
5055;DHT22;13829;48.990;8.346;2023-09-19T01:23:00;18.00;99.90
5055;DHT22;13829;48.990;8.346;2023-09-19T01:26:06;18.00;99.90
5055;DHT22;13829;48.990;8.346;2023-09-19T01:28:51;18.00;99.90
5055;DHT22;13829;48.990;8.346;2023-09-19T01:31:22;18.00;99.90
5055;DHT22;13829;48.990;8.346;2023-09-19T01:33:55;18.00;99.90
5055;DHT22;13829;48.990;8.346;2023-09-19T01:36:23;17.90;99.90
5055;DHT22;13829;48.990;8.346;2023-09-19T01:38:50;18.00;99.90
5055;DHT22;13829;48.990;8.346;2023-09-19T01:41:23;17.90;99.90
5055;DHT22;13829;48.990;8.346;2023-09-19T01:44:00;17.80;99.90
5055;DHT22;13829;48.990;8.346;2023-09-19T01:46:36;17.90;99.90
5055;DHT22;13829;48.990;8.346;2023-09-19T01:49:15;17.80;99.90
5055;DHT22;13829;48.990;8.346;2023-09-19T01:52:00;17.80;99.90
5055;DHT22;13829;48.990;8.346;2023-09-19T01:54:36;17.80;99.90
5055;DHT22;13829;48.990;8.346;2023-09-19T01:57:17;17.80;99.90
5055;DHT22;13829;48.990;8.346;2023-09-19T01:59:54;17.90;99.90
5055;DHT22;13829;48.990;8.346;2023-09-19T02:02:28;17.90;99.90
5055;DHT22;13829;48.990;8.346;2023-09-19T02:04:56;17.90;99.90
5055;DHT22;13829;48.990;8.346;2023-09-19T02:07:23;18.00;99.90
5055;DHT22;13829;48.990;8.346;2023-09-19T02:09:50;18.00;99.90
5055;DHT22;13829;48.990;8.346;2023-09-19T02:12:17;18.10;99.90
5055;DHT22;13829;48.990;8.346;2023-09-19T02:14:44;18.00;99.90
5055;DHT22;13829;48.990;8.346;2023-09-19T02:17:11;18.10;99.90
5055;DHT22;13829;48.990;8.346;2023-09-19T02:19:39;18.00;99.90
5055;DHT22;13829;48.990;8.346;2023-09-19T02:22:07;17.90;99.90
5055;DHT22;13829;48.990;8.346;2023-09-19T02:24:36;17.90;99.90
5055;DHT22;13829;48.990;8.346;2023-09-19T02:27:04;17.90;99.90
5055;DHT22;13829;48.990;8.346;2023-09-19T02:29:31;17.90;99.90
5055;DHT22;13829;48.990;8.346;2023-09-19T02:31:57;17.90;99.90
5055;DHT22;13829;48.990;8.346;2023-09-19T02:34:25;17.90;99.90
5055;DHT22;13829;48.990;8.346;2023-09-19T02:36:54;17.80;99.90
5055;DHT22;13829;48.990;8.346;2023-09-19T02:39:21;17.80;99.90
5055;DHT22;13829;48.990;8.346;2023-09-19T02:41:49;17.70;99.90
5055;DHT22;13829;48.990;8.346;2023-09-19T02:44:16;17.70;99.90
5055;DHT22;13829;48.990;8.346;2023-09-19T02:46:44;17.70;99.90
5055;DHT22;13829;48.990;8.346;2023-09-19T02:49:12;17.70;99.90
5055;DHT22;13829;48.990;8.346;2023-09-19T02:51:39;17.70;99.90
5055;DHT22;13829;48.990;8.346;2023-09-19T02:54:08;17.70;99.90
5055;DHT22;13829;48.990;8.346;2023-09-19T02:56:35;17.70;99.90
5055;DHT22;13829;48.990;8.346;2023-09-19T02:59:02;17.70;99.90
5055;DHT22;13829;48.990;8.346;2023-09-19T03:01:30;17.70;99.90
5055;DHT22;13829;48.990;8.346;2023-09-19T03:03:57;17.70;99.90
5055;DHT22;13829;48.990;8.346;2023-09-19T03:06:25;17.70;99.90
5055;DHT22;13829;48.990;8.346;2023-09-19T03:08:52;17.70;99.90
5055;DHT22;13829;48.990;8.346;2023-09-19T03:11:20;17.80;99.90
5055;DHT22;13829;48.990;8.346;2023-09-19T03:13:51;17.80;99.90
5055;DHT22;13829;48.990;8.346;2023-09-19T03:16:19;17.80;99.90
5055;DHT22;13829;48.990;8.346;2023-09-19T03:18:47;17.80;99.90
5055;DHT22;13829;48.990;8.346;2023-09-19T03:21:15;17.70;99.90
5055;DHT22;13829;48.990;8.346;2023-09-19T03:23:43;17.70;99.90
5055;DHT22;13829;48.990;8.346;2023-09-19T03:26:11;17.60;99.90
5055;DHT22;13829;48.990;8.346;2023-09-19T03:28:41;17.60;99.90
5055;DHT22;13829;48.990;8.346;2023-09-19T03:31:09;17.60;99.90
5055;DHT22;13829;48.990;8.346;2023-09-19T03:33:36;17.50;99.90
5055;DHT22;13829;48.990;8.346;2023-09-19T03:36:04;17.50;99.90
5055;DHT22;13829;48.990;8.346;2023-09-19T03:38:32;17.50;99.90
5055;DHT22;13829;48.990;8.346;2023-09-19T03:41:00;17.50;99.90
5055;DHT22;13829;48.990;8.346;2023-09-19T03:43:27;17.50;99.90
5055;DHT22;13829;48.990;8.346;2023-09-19T03:45:55;17.50;99.90
5055;DHT22;13829;48.990;8.346;2023-09-19T03:48:22;17.50;99.90
5055;DHT22;13829;48.990;8.346;2023-09-19T03:50:49;17.50;99.90
5055;DHT22;13829;48.990;8.346;2023-09-19T03:53:16;17.40;99.90
5055;DHT22;13829;48.990;8.346;2023-09-19T03:55:45;17.40;99.90
5055;DHT22;13829;48.990;8.346;2023-09-19T03:58:12;17.40;99.90
5055;DHT22;13829;48.990;8.346;2023-09-19T04:00:39;17.40;99.90
5055;DHT22;13829;48.990;8.346;2023-09-19T04:03:08;17.30;99.90
5055;DHT22;13829;48.990;8.346;2023-09-19T04:05:36;17.30;99.90
5055;DHT22;13829;48.990;8.346;2023-09-19T04:08:04;17.30;99.90
5055;DHT22;13829;48.990;8.346;2023-09-19T04:10:31;17.30;99.90
5055;DHT22;13829;48.990;8.346;2023-09-19T04:12:58;17.40;99.90
5055;DHT22;13829;48.990;8.346;2023-09-19T04:15:25;17.40;99.90
5055;DHT22;13829;48.990;8.346;2023-09-19T04:17:52;17.40;99.90
5055;DHT22;13829;48.990;8.346;2023-09-19T04:20:21;17.40;99.90
5055;DHT22;13829;48.990;8.346;2023-09-19T04:22:49;17.40;99.90
5055;DHT22;13829;48.990;8.346;2023-09-19T04:25:16;17.40;99.90
5055;DHT22;13829;48.990;8.346;2023-09-19T04:27:44;17.40;99.90
5055;DHT22;13829;48.990;8.346;2023-09-19T04:30:11;17.40;99.90
5055;DHT22;13829;48.990;8.346;2023-09-19T04:32:40;17.50;99.90
5055;DHT22;13829;48.990;8.346;2023-09-19T04:35:09;17.50;99.90
5055;DHT22;13829;48.990;8.346;2023-09-19T04:37:39;17.50;99.90
5055;DHT22;13829;48.990;8.346;2023-09-19T04:40:08;17.50;99.90
5055;DHT22;13829;48.990;8.346;2023-09-19T04:42:39;17.60;99.90
5055;DHT22;13829;48.990;8.346;2023-09-19T04:45:07;17.50;99.90
5055;DHT22;13829;48.990;8.346;2023-09-19T04:47:36;17.60;99.90
5055;DHT22;13829;48.990;8.346;2023-09-19T04:50:06;17.60;99.90
5055;DHT22;13829;48.990;8.346;2023-09-19T04:52:39;17.60;99.90
5055;DHT22;13829;48.990;8.346;2023-09-19T04:55:09;17.60;99.90
5055;DHT22;13829;48.990;8.346;2023-09-19T04:57:39;17.50;99.90
5055;DHT22;13829;48.990;8.346;2023-09-19T05:00:07;17.60;99.90
5055;DHT22;13829;48.990;8.346;2023-09-19T05:02:38;17.50;99.90
5055;DHT22;13829;48.990;8.346;2023-09-19T05:05:07;17.50;99.90
5055;DHT22;13829;48.990;8.346;2023-09-19T05:07:34;17.50;99.90
5055;DHT22;13829;48.990;8.346;2023-09-19T05:10:03;17.50;99.90
5055;DHT22;13829;48.990;8.346;2023-09-19T05:12:33;17.50;99.90
5055;DHT22;13829;48.990;8.346;2023-09-19T05:15:01;17.50;99.90
5055;DHT22;13829;48.990;8.346;2023-09-19T05:17:28;17.40;99.90
5055;DHT22;13829;48.990;8.346;2023-09-19T05:19:56;17.40;99.90
5055;DHT22;13829;48.990;8.346;2023-09-19T05:22:27;17.40;99.90
5055;DHT22;13829;48.990;8.346;2023-09-19T05:24:54;17.40;99.90
5055;DHT22;13829;48.990;8.346;2023-09-19T05:27:22;17.40;99.90
5055;DHT22;13829;48.990;8.346;2023-09-19T05:29:49;17.40;99.90
5055;DHT22;13829;48.990;8.346;2023-09-19T05:32:18;17.50;99.90
5055;DHT22;13829;48.990;8.346;2023-09-19T05:34:46;17.40;99.90
5055;DHT22;13829;48.990;8.346;2023-09-19T05:37:13;17.50;99.90
5055;DHT22;13829;48.990;8.346;2023-09-19T05:39:41;17.50;99.90
5055;DHT22;13829;48.990;8.346;2023-09-19T05:42:09;17.50;99.90
5055;DHT22;13829;48.990;8.346;2023-09-19T05:44:37;17.40;99.90
5055;DHT22;13829;48.990;8.346;2023-09-19T05:47:04;17.50;99.90
5055;DHT22;13829;48.990;8.346;2023-09-19T05:49:34;17.50;99.90
5055;DHT22;13829;48.990;8.346;2023-09-19T05:52:04;17.50;99.90
5055;DHT22;13829;48.990;8.346;2023-09-19T05:54:31;17.60;99.90
5055;DHT22;13829;48.990;8.346;2023-09-19T05:56:58;17.60;99.90
5055;DHT22;13829;48.990;8.346;2023-09-19T05:59:25;17.60;99.90
5055;DHT22;13829;48.990;8.346;2023-09-19T06:01:54;17.60;99.90
5055;DHT22;13829;48.990;8.346;2023-09-19T06:04:20;17.70;99.90
5055;DHT22;13829;48.990;8.346;2023-09-19T06:06:48;17.70;99.90
5055;DHT22;13829;48.990;8.346;2023-09-19T06:09:15;17.70;99.90
5055;DHT22;13829;48.990;8.346;2023-09-19T06:11:42;17.80;99.90
5055;DHT22;13829;48.990;8.346;2023-09-19T06:14:09;17.80;99.90
5055;DHT22;13829;48.990;8.346;2023-09-19T06:16:37;17.80;99.90
5055;DHT22;13829;48.990;8.346;2023-09-19T06:19:06;17.80;99.90
5055;DHT22;13829;48.990;8.346;2023-09-19T06:21:34;17.80;99.90
5055;DHT22;13829;48.990;8.346;2023-09-19T06:24:01;17.80;99.90
5055;DHT22;13829;48.990;8.346;2023-09-19T06:26:28;17.80;99.90
5055;DHT22;13829;48.990;8.346;2023-09-19T06:28:56;17.80;99.90
5055;DHT22;13829;48.990;8.346;2023-09-19T06:31:23;17.80;99.90
5055;DHT22;13829;48.990;8.346;2023-09-19T06:33:51;17.70;99.90
5055;DHT22;13829;48.990;8.346;2023-09-19T06:36:20;18.00;99.90
5055;DHT22;13829;48.990;8.346;2023-09-19T06:38:47;18.00;99.90
5055;DHT22;13829;48.990;8.346;2023-09-19T06:41:16;18.10;99.90
5055;DHT22;13829;48.990;8.346;2023-09-19T06:43:44;18.30;99.90
5055;DHT22;13829;48.990;8.346;2023-09-19T06:46:10;18.50;99.90
5055;DHT22;13829;48.990;8.346;2023-09-19T06:48:38;19.00;99.90
5055;DHT22;13829;48.990;8.346;2023-09-19T06:51:05;19.50;99.90
5055;DHT22;13829;48.990;8.346;2023-09-19T06:53:34;19.90;99.90
5055;DHT22;13829;48.990;8.346;2023-09-19T06:56:02;20.80;99.90
5055;DHT22;13829;48.990;8.346;2023-09-19T06:58:29;21.10;99.90
5055;DHT22;13829;48.990;8.346;2023-09-19T07:00:57;21.50;99.90
5055;DHT22;13829;48.990;8.346;2023-09-19T07:03:23;21.80;99.90
5055;DHT22;13829;48.990;8.346;2023-09-19T07:05:52;22.10;99.90
5055;DHT22;13829;48.990;8.346;2023-09-19T07:08:21;22.20;99.90
5055;DHT22;13829;48.990;8.346;2023-09-19T07:10:50;22.30;99.90
5055;DHT22;13829;48.990;8.346;2023-09-19T07:13:18;22.80;99.90
5055;DHT22;13829;48.990;8.346;2023-09-19T07:15:45;22.90;99.90
5055;DHT22;13829;48.990;8.346;2023-09-19T07:18:16;23.80;99.90
5055;DHT22;13829;48.990;8.346;2023-09-19T07:20:44;24.60;99.90
5055;DHT22;13829;48.990;8.346;2023-09-19T07:23:15;25.30;99.90
5055;DHT22;13829;48.990;8.346;2023-09-19T07:25:43;26.10;99.80
5055;DHT22;13829;48.990;8.346;2023-09-19T07:28:13;26.40;98.20
5055;DHT22;13829;48.990;8.346;2023-09-19T07:30:40;26.80;97.50
5055;DHT22;13829;48.990;8.346;2023-09-19T07:33:08;26.80;96.90
5055;DHT22;13829;48.990;8.346;2023-09-19T07:35:36;26.60;97.20
5055;DHT22;13829;48.990;8.346;2023-09-19T07:38:05;26.90;95.90
5055;DHT22;13829;48.990;8.346;2023-09-19T07:40:33;27.10;96.20
5055;DHT22;13829;48.990;8.346;2023-09-19T07:43:00;27.30;94.30
5055;DHT22;13829;48.990;8.346;2023-09-19T07:45:29;27.20;94.90
5055;DHT22;13829;48.990;8.346;2023-09-19T07:47:57;27.50;94.50
5055;DHT22;13829;48.990;8.346;2023-09-19T07:50:25;27.50;94.20
5055;DHT22;13829;48.990;8.346;2023-09-19T07:52:52;27.00;94.70
5055;DHT22;13829;48.990;8.346;2023-09-19T07:55:20;26.70;94.80
5055;DHT22;13829;48.990;8.346;2023-09-19T07:57:49;26.70;95.30
5055;DHT22;13829;48.990;8.346;2023-09-19T08:00:16;26.70;95.30
5055;DHT22;13829;48.990;8.346;2023-09-19T08:02:44;27.20;95.40
5055;DHT22;13829;48.990;8.346;2023-09-19T08:05:12;27.30;94.60
5055;DHT22;13829;48.990;8.346;2023-09-19T08:07:43;27.20;94.40
5055;DHT22;13829;48.990;8.346;2023-09-19T08:10:14;27.10;93.60
5055;DHT22;13829;48.990;8.346;2023-09-19T08:12:45;27.00;93.70
5055;DHT22;13829;48.990;8.346;2023-09-19T08:15:14;27.20;94.40
5055;DHT22;13829;48.990;8.346;2023-09-19T08:17:43;26.60;94.30
5055;DHT22;13829;48.990;8.346;2023-09-19T08:20:11;26.50;94.40
5055;DHT22;13829;48.990;8.346;2023-09-19T08:22:43;26.00;94.20
5055;DHT22;13829;48.990;8.346;2023-09-19T08:25:13;25.50;95.20
5055;DHT22;13829;48.990;8.346;2023-09-19T08:27:43;25.20;95.60
5055;DHT22;13829;48.990;8.346;2023-09-19T08:30:13;25.00;97.00
5055;DHT22;13829;48.990;8.346;2023-09-19T08:32:41;24.80;96.20
5055;DHT22;13829;48.990;8.346;2023-09-19T08:35:10;24.50;96.60
5055;DHT22;13829;48.990;8.346;2023-09-19T08:37:37;24.20;97.20
5055;DHT22;13829;48.990;8.346;2023-09-19T08:40:05;24.10;97.40
5055;DHT22;13829;48.990;8.346;2023-09-19T08:42:47;24.30;97.90
5055;DHT22;13829;48.990;8.346;2023-09-19T08:45:16;23.80;97.50
5055;DHT22;13829;48.990;8.346;2023-09-19T08:47:46;23.70;98.00
5055;DHT22;13829;48.990;8.346;2023-09-19T08:50:29;23.50;98.70
5055;DHT22;13829;48.990;8.346;2023-09-19T08:53:00;23.60;99.80
5055;DHT22;13829;48.990;8.346;2023-09-19T08:55:28;23.60;99.40
5055;DHT22;13829;48.990;8.346;2023-09-19T08:58:00;23.50;98.90
5055;DHT22;13829;48.990;8.346;2023-09-19T09:00:30;23.60;97.90
5055;DHT22;13829;48.990;8.346;2023-09-19T09:02:59;23.30;97.60
5055;DHT22;13829;48.990;8.346;2023-09-19T09:05:31;23.40;97.50
5055;DHT22;13829;48.990;8.346;2023-09-19T09:08:02;23.00;96.50
5055;DHT22;13829;48.990;8.346;2023-09-19T09:10:32;22.80;97.00
5055;DHT22;13829;48.990;8.346;2023-09-19T09:13:00;22.70;97.90
5055;DHT22;13829;48.990;8.346;2023-09-19T09:15:36;22.60;97.40
5055;DHT22;13829;48.990;8.346;2023-09-19T09:18:04;22.50;97.20
5055;DHT22;13829;48.990;8.346;2023-09-19T09:20:32;22.30;96.60
5055;DHT22;13829;48.990;8.346;2023-09-19T09:23:00;22.30;97.50
5055;DHT22;13829;48.990;8.346;2023-09-19T09:25:47;22.20;97.40
5055;DHT22;13829;48.990;8.346;2023-09-19T09:28:19;22.30;98.00
5055;DHT22;13829;48.990;8.346;2023-09-19T09:30:47;22.10;97.20
5055;DHT22;13829;48.990;8.346;2023-09-19T09:33:15;22.10;97.30
5055;DHT22;13829;48.990;8.346;2023-09-19T09:35:52;22.10;97.60
5055;DHT22;13829;48.990;8.346;2023-09-19T09:38:22;22.10;97.70
5055;DHT22;13829;48.990;8.346;2023-09-19T09:40:53;22.10;97.40
5055;DHT22;13829;48.990;8.346;2023-09-19T09:43:27;21.90;97.80
5055;DHT22;13829;48.990;8.346;2023-09-19T09:46:10;22.10;97.90
5055;DHT22;13829;48.990;8.346;2023-09-19T09:48:57;22.10;98.10
5055;DHT22;13829;48.990;8.346;2023-09-19T09:51:48;22.10;97.70
5055;DHT22;13829;48.990;8.346;2023-09-19T09:54:26;21.90;97.30
5055;DHT22;13829;48.990;8.346;2023-09-19T09:57:00;21.80;97.30
5055;DHT22;13829;48.990;8.346;2023-09-19T09:59:49;21.70;97.50
5055;DHT22;13829;48.990;8.346;2023-09-19T10:02:20;21.70;97.80
5055;DHT22;13829;48.990;8.346;2023-09-19T10:04:52;21.80;97.70
5055;DHT22;13829;48.990;8.346;2023-09-19T10:07:27;21.80;97.70
5055;DHT22;13829;48.990;8.346;2023-09-19T10:09:59;22.00;98.20
5055;DHT22;13829;48.990;8.346;2023-09-19T10:12:36;22.20;97.40
5055;DHT22;13829;48.990;8.346;2023-09-19T10:15:11;22.10;97.40
5055;DHT22;13829;48.990;8.346;2023-09-19T10:17:43;22.00;97.50
5055;DHT22;13829;48.990;8.346;2023-09-19T10:20:15;22.00;98.40
5055;DHT22;13829;48.990;8.346;2023-09-19T10:23:06;22.00;98.00
5055;DHT22;13829;48.990;8.346;2023-09-19T10:25:37;21.70;98.10
5055;DHT22;13829;48.990;8.346;2023-09-19T10:28:06;21.90;97.80
5055;DHT22;13829;48.990;8.346;2023-09-19T10:30:37;21.90;97.70
5055;DHT22;13829;48.990;8.346;2023-09-19T10:33:10;21.90;97.80
5055;DHT22;13829;48.990;8.346;2023-09-19T10:35:39;21.90;97.10
5055;DHT22;13829;48.990;8.346;2023-09-19T10:38:12;21.90;97.40
5055;DHT22;13829;48.990;8.346;2023-09-19T10:40:41;22.00;97.40
5055;DHT22;13829;48.990;8.346;2023-09-19T10:43:12;22.10;98.40
5055;DHT22;13829;48.990;8.346;2023-09-19T10:45:45;22.30;98.10
5055;DHT22;13829;48.990;8.346;2023-09-19T10:48:15;22.40;97.80
5055;DHT22;13829;48.990;8.346;2023-09-19T10:50:48;22.50;98.20
5055;DHT22;13829;48.990;8.346;2023-09-19T10:53:19;22.50;97.40
5055;DHT22;13829;48.990;8.346;2023-09-19T10:55:53;22.50;97.60
5055;DHT22;13829;48.990;8.346;2023-09-19T10:58:26;22.60;98.00
5055;DHT22;13829;48.990;8.346;2023-09-19T11:00:56;22.40;97.60
5055;DHT22;13829;48.990;8.346;2023-09-19T11:03:28;22.50;97.70
5055;DHT22;13829;48.990;8.346;2023-09-19T11:06:11;22.40;97.80
5055;DHT22;13829;48.990;8.346;2023-09-19T11:09:01;22.40;97.50
5055;DHT22;13829;48.990;8.346;2023-09-19T11:11:48;22.50;97.60
5055;DHT22;13829;48.990;8.346;2023-09-19T11:14:30;22.50;97.40
5055;DHT22;13829;48.990;8.346;2023-09-19T11:20:23;22.50;98.20
5055;DHT22;13829;48.990;8.346;2023-09-19T11:23:29;22.40;97.90
5055;DHT22;13829;48.990;8.346;2023-09-19T11:25:58;22.40;97.20
5055;DHT22;13829;48.990;8.346;2023-09-19T11:28:43;22.40;97.60
5055;DHT22;13829;48.990;8.346;2023-09-19T11:34:48;22.80;96.40
5055;DHT22;13829;48.990;8.346;2023-09-19T11:40:37;22.80;96.60
5055;DHT22;13829;48.990;8.346;2023-09-19T11:43:31;23.00;96.70
5055;DHT22;13829;48.990;8.346;2023-09-19T11:46:09;23.20;97.00
5055;DHT22;13829;48.990;8.346;2023-09-19T11:48:38;23.20;96.90
5055;DHT22;13829;48.990;8.346;2023-09-19T11:51:14;22.80;96.10
5055;DHT22;13829;48.990;8.346;2023-09-19T11:53:45;22.60;96.30
5055;DHT22;13829;48.990;8.346;2023-09-19T11:56:16;22.40;96.90
5055;DHT22;13829;48.990;8.346;2023-09-19T11:58:46;22.30;96.80
5055;DHT22;13829;48.990;8.346;2023-09-19T12:01:19;22.20;97.00
5055;DHT22;13829;48.990;8.346;2023-09-19T12:03:54;22.10;97.00
5055;DHT22;13829;48.990;8.346;2023-09-19T12:06:23;22.20;96.70
5055;DHT22;13829;48.990;8.346;2023-09-19T12:08:51;22.30;95.90
5055;DHT22;13829;48.990;8.346;2023-09-19T12:11:21;22.20;96.50
5055;DHT22;13829;48.990;8.346;2023-09-19T12:13:51;22.00;95.60
5055;DHT22;13829;48.990;8.346;2023-09-19T12:16:20;22.10;96.00
5055;DHT22;13829;48.990;8.346;2023-09-19T12:18:50;22.20;96.70
5055;DHT22;13829;48.990;8.346;2023-09-19T12:21:28;22.20;97.40
5055;DHT22;13829;48.990;8.346;2023-09-19T12:24:14;22.40;96.50
5055;DHT22;13829;48.990;8.346;2023-09-19T12:26:46;22.30;95.70
5055;DHT22;13829;48.990;8.346;2023-09-19T12:29:20;22.60;96.40
5055;DHT22;13829;48.990;8.346;2023-09-19T12:31:51;22.50;95.90
5055;DHT22;13829;48.990;8.346;2023-09-19T12:34:22;22.50;96.00
5055;DHT22;13829;48.990;8.346;2023-09-19T12:37:04;22.50;96.20
5055;DHT22;13829;48.990;8.346;2023-09-19T12:39:38;22.50;95.60
5055;DHT22;13829;48.990;8.346;2023-09-19T12:42:08;22.50;95.90
5055;DHT22;13829;48.990;8.346;2023-09-19T12:44:38;22.50;96.70
5055;DHT22;13829;48.990;8.346;2023-09-19T12:47:10;22.60;96.20
5055;DHT22;13829;48.990;8.346;2023-09-19T12:50:08;22.50;95.80
5055;DHT22;13829;48.990;8.346;2023-09-19T12:52:41;22.70;95.90
5055;DHT22;13829;48.990;8.346;2023-09-19T12:55:20;22.80;95.60
5055;DHT22;13829;48.990;8.346;2023-09-19T12:58:00;22.80;94.70
5055;DHT22;13829;48.990;8.346;2023-09-19T13:00:36;22.60;94.60
5055;DHT22;13829;48.990;8.346;2023-09-19T13:03:15;22.40;95.40
5055;DHT22;13829;48.990;8.346;2023-09-19T13:05:57;22.30;96.10
5055;DHT22;13829;48.990;8.346;2023-09-19T13:08:27;22.40;95.40
5055;DHT22;13829;48.990;8.346;2023-09-19T13:11:16;22.50;95.70
5055;DHT22;13829;48.990;8.346;2023-09-19T13:13:47;22.70;95.00
5055;DHT22;13829;48.990;8.346;2023-09-19T13:16:21;22.60;95.60
5055;DHT22;13829;48.990;8.346;2023-09-19T13:18:51;22.80;95.40
5055;DHT22;13829;48.990;8.346;2023-09-19T13:21:28;22.80;94.90
5055;DHT22;13829;48.990;8.346;2023-09-19T13:24:22;22.80;95.20
5055;DHT22;13829;48.990;8.346;2023-09-19T13:26:51;22.70;95.60
5055;DHT22;13829;48.990;8.346;2023-09-19T13:29:18;22.80;95.40
5055;DHT22;13829;48.990;8.346;2023-09-19T13:31:49;22.90;95.20
5055;DHT22;13829;48.990;8.346;2023-09-19T13:34:18;23.00;95.00
5055;DHT22;13829;48.990;8.346;2023-09-19T13:36:46;22.90;95.20
5055;DHT22;13829;48.990;8.346;2023-09-19T13:39:14;22.90;95.30
5055;DHT22;13829;48.990;8.346;2023-09-19T13:41:42;23.00;94.60
5055;DHT22;13829;48.990;8.346;2023-09-19T13:44:10;23.10;94.70
5055;DHT22;13829;48.990;8.346;2023-09-19T13:46:38;23.00;94.60
5055;DHT22;13829;48.990;8.346;2023-09-19T13:49:07;22.80;95.00
5055;DHT22;13829;48.990;8.346;2023-09-19T13:51:35;22.70;95.00
5055;DHT22;13829;48.990;8.346;2023-09-19T13:54:02;22.80;95.20
5055;DHT22;13829;48.990;8.346;2023-09-19T13:56:29;22.90;95.10
5055;DHT22;13829;48.990;8.346;2023-09-19T13:58:57;23.10;95.00
5055;DHT22;13829;48.990;8.346;2023-09-19T14:01:24;23.30;94.60
5055;DHT22;13829;48.990;8.346;2023-09-19T14:03:52;23.50;93.80
5055;DHT22;13829;48.990;8.346;2023-09-19T14:06:24;23.50;93.50
5055;DHT22;13829;48.990;8.346;2023-09-19T14:08:50;23.50;93.30
5055;DHT22;13829;48.990;8.346;2023-09-19T14:11:17;23.50;93.50
5055;DHT22;13829;48.990;8.346;2023-09-19T14:13:44;23.40;94.60
5055;DHT22;13829;48.990;8.346;2023-09-19T14:16:14;23.40;94.80
5055;DHT22;13829;48.990;8.346;2023-09-19T14:18:42;23.40;94.80
5055;DHT22;13829;48.990;8.346;2023-09-19T14:21:11;23.50;94.00
5055;DHT22;13829;48.990;8.346;2023-09-19T14:23:39;23.50;94.90
5055;DHT22;13829;48.990;8.346;2023-09-19T14:26:07;23.40;94.80
5055;DHT22;13829;48.990;8.346;2023-09-19T14:28:35;23.40;94.60
5055;DHT22;13829;48.990;8.346;2023-09-19T14:31:06;23.30;94.30
5055;DHT22;13829;48.990;8.346;2023-09-19T14:33:33;23.20;94.70
5055;DHT22;13829;48.990;8.346;2023-09-19T14:36:04;23.10;94.90
5055;DHT22;13829;48.990;8.346;2023-09-19T14:38:34;23.20;94.90
5055;DHT22;13829;48.990;8.346;2023-09-19T14:41:03;23.30;94.90
5055;DHT22;13829;48.990;8.346;2023-09-19T14:43:32;23.20;95.20
5055;DHT22;13829;48.990;8.346;2023-09-19T14:46:02;23.40;95.70
5055;DHT22;13829;48.990;8.346;2023-09-19T14:48:30;23.30;95.30
5055;DHT22;13829;48.990;8.346;2023-09-19T14:51:02;23.40;95.20
5055;DHT22;13829;48.990;8.346;2023-09-19T14:53:30;23.20;95.00
5055;DHT22;13829;48.990;8.346;2023-09-19T14:55:56;23.10;94.70
5055;DHT22;13829;48.990;8.346;2023-09-19T14:58:29;23.00;94.50
5055;DHT22;13829;48.990;8.346;2023-09-19T15:01:02;22.90;95.00
5055;DHT22;13829;48.990;8.346;2023-09-19T15:03:31;22.90;95.10
5055;DHT22;13829;48.990;8.346;2023-09-19T15:06:02;22.80;95.10
5055;DHT22;13829;48.990;8.346;2023-09-19T15:08:30;22.70;95.80
5055;DHT22;13829;48.990;8.346;2023-09-19T15:10:59;22.60;96.30
5055;DHT22;13829;48.990;8.346;2023-09-19T15:13:30;22.60;96.00
5055;DHT22;13829;48.990;8.346;2023-09-19T15:16:00;22.50;95.40
5055;DHT22;13829;48.990;8.346;2023-09-19T15:18:28;22.50;95.50
5055;DHT22;13829;48.990;8.346;2023-09-19T15:20:56;22.50;95.90
5055;DHT22;13829;48.990;8.346;2023-09-19T15:23:23;22.60;96.00
5055;DHT22;13829;48.990;8.346;2023-09-19T15:25:50;22.60;95.80
5055;DHT22;13829;48.990;8.346;2023-09-19T15:28:17;22.60;96.20
5055;DHT22;13829;48.990;8.346;2023-09-19T15:30:45;22.70;97.10
5055;DHT22;13829;48.990;8.346;2023-09-19T15:33:12;22.60;96.80
5055;DHT22;13829;48.990;8.346;2023-09-19T15:35:39;22.60;97.00
5055;DHT22;13829;48.990;8.346;2023-09-19T15:38:07;22.60;97.00
5055;DHT22;13829;48.990;8.346;2023-09-19T15:40:34;22.50;97.20
5055;DHT22;13829;48.990;8.346;2023-09-19T15:43:01;22.50;97.60
5055;DHT22;13829;48.990;8.346;2023-09-19T15:45:28;22.50;97.80
5055;DHT22;13829;48.990;8.346;2023-09-19T15:47:56;22.40;97.30
5055;DHT22;13829;48.990;8.346;2023-09-19T15:50:23;22.40;97.70
5055;DHT22;13829;48.990;8.346;2023-09-19T15:52:53;22.30;97.90
5055;DHT22;13829;48.990;8.346;2023-09-19T15:55:21;22.30;97.60
5055;DHT22;13829;48.990;8.346;2023-09-19T15:57:48;22.40;97.80
5055;DHT22;13829;48.990;8.346;2023-09-19T16:00:15;22.40;98.10
5055;DHT22;13829;48.990;8.346;2023-09-19T16:02:45;22.30;98.60
5055;DHT22;13829;48.990;8.346;2023-09-19T16:05:17;22.10;98.00
5055;DHT22;13829;48.990;8.346;2023-09-19T16:07:44;22.20;98.10
5055;DHT22;13829;48.990;8.346;2023-09-19T16:10:11;22.20;98.30
5055;DHT22;13829;48.990;8.346;2023-09-19T16:12:39;22.20;98.70
5055;DHT22;13829;48.990;8.346;2023-09-19T16:15:07;22.20;99.10